Kansas, Illinois
Current Conditions -  °F | °C
As of 2:55 PM on Thursday 27 Nov 2014 (Local Time) from KPRG Reporting Station
Light Snow Light Snow  
Wind Chill: 20°   Ceiling: 1700
Heat Index: 29°   Visibility: 2mi
Dew Point: 25°   Wind: 9mph
Humidity: 84%   Direction: 280°W
Pressure: 30.4"   Gusts: NA
Location:  39.55°N, 87.94°W
Report Text: KPRG 272055Z AUTO 28008KT 2SM -SN SCT012 BKN017 OVC030 M02/M04 A3040 RMK AO2 T10171040
Loading
Personal Weather Stations






























Interactive Weather Map New forecast layout! Learn more

10-Day Weather Forecast

Advertisements
Track Severe Weather on mobile